sensor_id;sensor_type;location;lat;lon;timestamp;P1;durP1;ratioP1;P2;durP2;ratioP2
63782;SDS011;49925;52.522;5.732;2023-07-31T00:01:02;6.97;;;2.30;;
63782;SDS011;49925;52.522;5.732;2023-07-31T00:03:29;10.75;;;1.98;;
63782;SDS011;49925;52.522;5.732;2023-07-31T00:05:57;4.30;;;1.83;;
63782;SDS011;49925;52.522;5.732;2023-07-31T00:08:24;3.50;;;2.00;;
63782;SDS011;49925;52.522;5.732;2023-07-31T00:10:52;7.38;;;2.00;;
63782;SDS011;49925;52.522;5.732;2023-07-31T00:13:19;6.40;;;1.80;;
63782;SDS011;49925;52.522;5.732;2023-07-31T00:15:46;4.85;;;1.98;;
63782;SDS011;49925;52.522;5.732;2023-07-31T00:18:14;4.45;;;2.00;;
63782;SDS011;49925;52.522;5.732;2023-07-31T00:20:41;4.65;;;1.88;;
63782;SDS011;49925;52.522;5.732;2023-07-31T00:23:08;5.82;;;1.85;;
63782;SDS011;49925;52.522;5.732;2023-07-31T00:25:36;3.60;;;2.08;;
63782;SDS011;49925;52.522;5.732;2023-07-31T00:28:03;3.28;;;1.95;;
63782;SDS011;49925;52.522;5.732;2023-07-31T00:30:30;3.33;;;1.92;;
63782;SDS011;49925;52.522;5.732;2023-07-31T00:32:57;5.95;;;2.10;;
63782;SDS011;49925;52.522;5.732;2023-07-31T00:35:25;5.78;;;2.47;;
63782;SDS011;49925;52.522;5.732;2023-07-31T00:37:53;6.32;;;2.38;;
63782;SDS011;49925;52.522;5.732;2023-07-31T00:40:20;5.05;;;2.10;;
63782;SDS011;49925;52.522;5.732;2023-07-31T00:42:47;9.95;;;2.33;;
63782;SDS011;49925;52.522;5.732;2023-07-31T00:45:14;3.22;;;1.92;;
63782;SDS011;49925;52.522;5.732;2023-07-31T00:47:42;3.72;;;1.95;;
63782;SDS011;49925;52.522;5.732;2023-07-31T00:50:09;4.78;;;2.25;;
63782;SDS011;49925;52.522;5.732;2023-07-31T00:52:36;3.85;;;2.00;;
63782;SDS011;49925;52.522;5.732;2023-07-31T00:55:03;5.63;;;2.17;;
63782;SDS011;49925;52.522;5.732;2023-07-31T00:57:31;3.55;;;2.17;;
63782;SDS011;49925;52.522;5.732;2023-07-31T00:59:59;3.85;;;2.20;;
63782;SDS011;49925;52.522;5.732;2023-07-31T01:02:26;8.18;;;2.25;;
63782;SDS011;49925;52.522;5.732;2023-07-31T01:04:54;7.90;;;2.35;;
63782;SDS011;49925;52.522;5.732;2023-07-31T01:07:25;9.98;;;2.65;;
63782;SDS011;49925;52.522;5.732;2023-07-31T01:10:15;5.95;;;2.50;;
63782;SDS011;49925;52.522;5.732;2023-07-31T01:12:50;9.10;;;2.90;;
63782;SDS011;49925;52.522;5.732;2023-07-31T01:15:18;8.00;;;2.83;;
63782;SDS011;49925;52.522;5.732;2023-07-31T01:17:45;13.70;;;3.05;;
63782;SDS011;49925;52.522;5.732;2023-07-31T01:20:22;9.45;;;2.88;;
63782;SDS011;49925;52.522;5.732;2023-07-31T01:26:00;13.77;;;3.08;;
63782;SDS011;49925;52.522;5.732;2023-07-31T01:28:51;11.52;;;3.30;;
63782;SDS011;49925;52.522;5.732;2023-07-31T01:31:28;14.77;;;3.72;;
63782;SDS011;49925;52.522;5.732;2023-07-31T01:33:57;13.02;;;3.47;;
63782;SDS011;49925;52.522;5.732;2023-07-31T01:36:28;11.50;;;3.22;;
63782;SDS011;49925;52.522;5.732;2023-07-31T01:38:58;16.85;;;3.45;;
63782;SDS011;49925;52.522;5.732;2023-07-31T01:41:26;20.00;;;4.00;;
63782;SDS011;49925;52.522;5.732;2023-07-31T01:43:54;13.18;;;3.80;;
63782;SDS011;49925;52.522;5.732;2023-07-31T01:46:21;17.90;;;4.20;;
63782;SDS011;49925;52.522;5.732;2023-07-31T01:48:49;24.10;;;4.18;;
63782;SDS011;49925;52.522;5.732;2023-07-31T01:51:17;16.67;;;4.25;;
63782;SDS011;49925;52.522;5.732;2023-07-31T01:53:44;18.58;;;4.50;;
63782;SDS011;49925;52.522;5.732;2023-07-31T01:56:14;8.95;;;3.45;;
63782;SDS011;49925;52.522;5.732;2023-07-31T01:58:41;16.23;;;4.10;;
63782;SDS011;49925;52.522;5.732;2023-07-31T02:01:08;13.35;;;3.92;;
63782;SDS011;49925;52.522;5.732;2023-07-31T02:03:36;17.55;;;4.13;;
63782;SDS011;49925;52.522;5.732;2023-07-31T02:06:03;15.38;;;4.72;;
63782;SDS011;49925;52.522;5.732;2023-07-31T02:08:30;20.23;;;4.60;;
63782;SDS011;49925;52.522;5.732;2023-07-31T02:10:57;20.10;;;4.43;;
63782;SDS011;49925;52.522;5.732;2023-07-31T02:13:25;23.20;;;4.80;;
63782;SDS011;49925;52.522;5.732;2023-07-31T02:15:52;19.92;;;4.10;;
63782;SDS011;49925;52.522;5.732;2023-07-31T02:18:20;19.17;;;4.50;;
63782;SDS011;49925;52.522;5.732;2023-07-31T02:20:49;17.42;;;4.57;;
63782;SDS011;49925;52.522;5.732;2023-07-31T02:23:18;22.38;;;5.05;;
63782;SDS011;49925;52.522;5.732;2023-07-31T02:25:46;16.60;;;5.05;;
63782;SDS011;49925;52.522;5.732;2023-07-31T02:28:13;18.85;;;4.50;;
63782;SDS011;49925;52.522;5.732;2023-07-31T02:30:43;22.38;;;5.10;;
63782;SDS011;49925;52.522;5.732;2023-07-31T02:33:12;14.10;;;4.43;;
63782;SDS011;49925;52.522;5.732;2023-07-31T02:35:41;17.58;;;4.60;;
63782;SDS011;49925;52.522;5.732;2023-07-31T02:38:08;14.10;;;4.88;;
63782;SDS011;49925;52.522;5.732;2023-07-31T02:40:35;15.23;;;4.47;;
63782;SDS011;49925;52.522;5.732;2023-07-31T02:43:02;16.95;;;4.35;;
63782;SDS011;49925;52.522;5.732;2023-07-31T02:45:30;15.52;;;4.55;;
63782;SDS011;49925;52.522;5.732;2023-07-31T02:47:57;20.25;;;4.90;;
63782;SDS011;49925;52.522;5.732;2023-07-31T02:50:24;21.50;;;5.13;;
63782;SDS011;49925;52.522;5.732;2023-07-31T02:52:52;28.05;;;5.43;;
63782;SDS011;49925;52.522;5.732;2023-07-31T02:55:19;26.63;;;5.35;;
63782;SDS011;49925;52.522;5.732;2023-07-31T02:57:46;31.80;;;7.68;;
63782;SDS011;49925;52.522;5.732;2023-07-31T03:00:13;33.03;;;7.20;;
63782;SDS011;49925;52.522;5.732;2023-07-31T03:02:41;39.72;;;6.88;;
63782;SDS011;49925;52.522;5.732;2023-07-31T03:05:08;36.65;;;7.00;;
63782;SDS011;49925;52.522;5.732;2023-07-31T03:07:35;40.25;;;7.10;;
63782;SDS011;49925;52.522;5.732;2023-07-31T03:10:03;33.15;;;6.97;;
63782;SDS011;49925;52.522;5.732;2023-07-31T03:12:30;44.15;;;7.47;;
63782;SDS011;49925;52.522;5.732;2023-07-31T03:14:57;40.58;;;8.45;;
63782;SDS011;49925;52.522;5.732;2023-07-31T03:17:25;39.97;;;8.18;;
63782;SDS011;49925;52.522;5.732;2023-07-31T03:19:52;41.03;;;7.75;;
63782;SDS011;49925;52.522;5.732;2023-07-31T03:22:19;45.40;;;8.50;;
63782;SDS011;49925;52.522;5.732;2023-07-31T03:24:46;47.40;;;8.45;;
63782;SDS011;49925;52.522;5.732;2023-07-31T03:27:14;40.40;;;9.10;;
63782;SDS011;49925;52.522;5.732;2023-07-31T03:29:41;45.38;;;7.75;;
63782;SDS011;49925;52.522;5.732;2023-07-31T03:32:08;42.55;;;8.40;;
63782;SDS011;49925;52.522;5.732;2023-07-31T03:34:35;42.88;;;9.23;;
63782;SDS011;49925;52.522;5.732;2023-07-31T03:37:02;46.03;;;8.95;;
63782;SDS011;49925;52.522;5.732;2023-07-31T03:39:31;43.20;;;8.35;;
63782;SDS011;49925;52.522;5.732;2023-07-31T03:41:58;38.03;;;8.32;;
63782;SDS011;49925;52.522;5.732;2023-07-31T03:44:26;46.90;;;8.30;;
63782;SDS011;49925;52.522;5.732;2023-07-31T03:46:53;37.15;;;7.82;;
63782;SDS011;49925;52.522;5.732;2023-07-31T03:49:20;37.72;;;8.07;;
63782;SDS011;49925;52.522;5.732;2023-07-31T03:51:48;53.35;;;9.65;;
63782;SDS011;49925;52.522;5.732;2023-07-31T03:54:16;48.92;;;9.32;;
63782;SDS011;49925;52.522;5.732;2023-07-31T03:56:43;44.20;;;9.38;;
63782;SDS011;49925;52.522;5.732;2023-07-31T03:59:10;46.80;;;8.98;;
63782;SDS011;49925;52.522;5.732;2023-07-31T04:01:37;45.58;;;9.07;;
63782;SDS011;49925;52.522;5.732;2023-07-31T04:04:05;48.33;;;9.27;;
63782;SDS011;49925;52.522;5.732;2023-07-31T04:06:32;49.92;;;9.48;;
63782;SDS011;49925;52.522;5.732;2023-07-31T04:08:59;45.17;;;8.43;;
63782;SDS011;49925;52.522;5.732;2023-07-31T04:11:26;47.47;;;9.25;;
63782;SDS011;49925;52.522;5.732;2023-07-31T04:13:54;51.00;;;9.38;;
63782;SDS011;49925;52.522;5.732;2023-07-31T04:16:21;56.72;;;9.80;;
63782;SDS011;49925;52.522;5.732;2023-07-31T04:18:49;58.25;;;10.00;;
63782;SDS011;49925;52.522;5.732;2023-07-31T04:21:16;50.58;;;9.50;;
63782;SDS011;49925;52.522;5.732;2023-07-31T04:23:44;47.97;;;10.00;;
63782;SDS011;49925;52.522;5.732;2023-07-31T04:26:11;53.47;;;9.65;;
63782;SDS011;49925;52.522;5.732;2023-07-31T04:28:38;58.22;;;9.88;;
63782;SDS011;49925;52.522;5.732;2023-07-31T04:31:05;45.13;;;9.18;;
63782;SDS011;49925;52.522;5.732;2023-07-31T04:33:33;50.85;;;10.00;;
63782;SDS011;49925;52.522;5.732;2023-07-31T04:36:00;52.72;;;9.77;;
63782;SDS011;49925;52.522;5.732;2023-07-31T04:38:28;56.45;;;10.35;;
63782;SDS011;49925;52.522;5.732;2023-07-31T04:40:55;55.38;;;9.43;;
63782;SDS011;49925;52.522;5.732;2023-07-31T04:43:22;61.08;;;11.25;;
63782;SDS011;49925;52.522;5.732;2023-07-31T04:48:25;59.95;;;10.65;;
63782;SDS011;49925;52.522;5.732;2023-07-31T04:50:52;62.40;;;11.75;;
63782;SDS011;49925;52.522;5.732;2023-07-31T04:53:20;52.63;;;10.27;;
63782;SDS011;49925;52.522;5.732;2023-07-31T04:55:47;59.97;;;10.48;;
63782;SDS011;49925;52.522;5.732;2023-07-31T04:58:14;48.05;;;9.65;;
63782;SDS011;49925;52.522;5.732;2023-07-31T05:00:41;66.15;;;10.80;;
63782;SDS011;49925;52.522;5.732;2023-07-31T05:03:09;59.42;;;10.60;;
63782;SDS011;49925;52.522;5.732;2023-07-31T05:05:38;46.00;;;9.07;;
63782;SDS011;49925;52.522;5.732;2023-07-31T05:08:05;47.20;;;9.88;;
63782;SDS011;49925;52.522;5.732;2023-07-31T05:10:32;58.85;;;9.88;;
63782;SDS011;49925;52.522;5.732;2023-07-31T05:12:59;43.17;;;9.05;;
63782;SDS011;49925;52.522;5.732;2023-07-31T05:15:27;45.63;;;9.30;;
63782;SDS011;49925;52.522;5.732;2023-07-31T05:17:54;37.17;;;8.40;;
63782;SDS011;49925;52.522;5.732;2023-07-31T05:20:22;50.47;;;9.63;;
63782;SDS011;49925;52.522;5.732;2023-07-31T05:22:50;54.33;;;9.40;;
63782;SDS011;49925;52.522;5.732;2023-07-31T05:25:17;39.53;;;9.02;;
63782;SDS011;49925;52.522;5.732;2023-07-31T05:27:45;48.55;;;8.93;;
63782;SDS011;49925;52.522;5.732;2023-07-31T05:30:12;42.63;;;8.68;;
63782;SDS011;49925;52.522;5.732;2023-07-31T05:32:39;42.92;;;9.18;;
63782;SDS011;49925;52.522;5.732;2023-07-31T05:35:06;49.05;;;10.27;;
63782;SDS011;49925;52.522;5.732;2023-07-31T05:37:34;45.50;;;9.57;;
63782;SDS011;49925;52.522;5.732;2023-07-31T05:40:01;57.15;;;10.68;;
63782;SDS011;49925;52.522;5.732;2023-07-31T05:42:28;48.83;;;10.38;;
63782;SDS011;49925;52.522;5.732;2023-07-31T05:44:56;41.80;;;9.50;;
63782;SDS011;49925;52.522;5.732;2023-07-31T05:47:23;39.97;;;9.75;;
63782;SDS011;49925;52.522;5.732;2023-07-31T05:49:50;36.95;;;9.07;;
63782;SDS011;49925;52.522;5.732;2023-07-31T05:52:20;42.30;;;9.80;;
63782;SDS011;49925;52.522;5.732;2023-07-31T05:54:47;36.47;;;9.30;;
63782;SDS011;49925;52.522;5.732;2023-07-31T05:57:15;31.73;;;8.50;;
63782;SDS011;49925;52.522;5.732;2023-07-31T05:59:42;26.15;;;7.35;;
63782;SDS011;49925;52.522;5.732;2023-07-31T06:02:10;27.38;;;7.30;;
63782;SDS011;49925;52.522;5.732;2023-07-31T06:04:37;26.75;;;6.57;;
63782;SDS011;49925;52.522;5.732;2023-07-31T06:07:04;22.05;;;6.97;;
63782;SDS011;49925;52.522;5.732;2023-07-31T06:09:32;19.25;;;6.38;;
63782;SDS011;49925;52.522;5.732;2023-07-31T06:11:59;14.98;;;5.32;;
63782;SDS011;49925;52.522;5.732;2023-07-31T06:14:26;21.08;;;5.47;;
63782;SDS011;49925;52.522;5.732;2023-07-31T06:16:54;20.70;;;5.10;;
63782;SDS011;49925;52.522;5.732;2023-07-31T06:19:21;14.50;;;5.22;;
63782;SDS011;49925;52.522;5.732;2023-07-31T06:21:48;12.05;;;4.78;;
63782;SDS011;49925;52.522;5.732;2023-07-31T06:24:16;14.80;;;4.97;;
63782;SDS011;49925;52.522;5.732;2023-07-31T06:26:46;15.07;;;4.63;;
63782;SDS011;49925;52.522;5.732;2023-07-31T06:29:14;14.70;;;4.75;;
63782;SDS011;49925;52.522;5.732;2023-07-31T06:31:41;11.63;;;4.00;;
63782;SDS011;49925;52.522;5.732;2023-07-31T06:34:08;16.48;;;5.13;;
63782;SDS011;49925;52.522;5.732;2023-07-31T06:36:36;11.05;;;4.50;;
63782;SDS011;49925;52.522;5.732;2023-07-31T06:39:04;11.13;;;4.10;;
63782;SDS011;49925;52.522;5.732;2023-07-31T06:41:31;14.02;;;4.30;;
63782;SDS011;49925;52.522;5.732;2023-07-31T06:43:58;13.05;;;4.75;;
63782;SDS011;49925;52.522;5.732;2023-07-31T06:46:25;10.95;;;4.20;;
63782;SDS011;49925;52.522;5.732;2023-07-31T06:48:53;15.65;;;4.22;;
63782;SDS011;49925;52.522;5.732;2023-07-31T06:51:20;13.30;;;3.95;;
63782;SDS011;49925;52.522;5.732;2023-07-31T06:53:47;11.68;;;4.15;;
63782;SDS011;49925;52.522;5.732;2023-07-31T06:56:14;11.55;;;3.80;;
63782;SDS011;49925;52.522;5.732;2023-07-31T06:58:42;12.73;;;3.63;;
63782;SDS011;49925;52.522;5.732;2023-07-31T07:01:09;12.00;;;4.00;;
63782;SDS011;49925;52.522;5.732;2023-07-31T07:03:36;8.52;;;3.55;;
63782;SDS011;49925;52.522;5.732;2023-07-31T07:06:03;9.68;;;3.58;;
63782;SDS011;49925;52.522;5.732;2023-07-31T07:08:31;9.70;;;3.80;;
63782;SDS011;49925;52.522;5.732;2023-07-31T07:10:58;16.02;;;3.70;;
63782;SDS011;49925;52.522;5.732;2023-07-31T07:13:25;8.18;;;3.40;;
63782;SDS011;49925;52.522;5.732;2023-07-31T07:15:54;9.88;;;4.13;;
63782;SDS011;49925;52.522;5.732;2023-07-31T07:18:21;11.38;;;3.38;;
63782;SDS011;49925;52.522;5.732;2023-07-31T07:20:52;9.20;;;3.70;;
63782;SDS011;49925;52.522;5.732;2023-07-31T07:23:20;11.80;;;3.78;;
63782;SDS011;49925;52.522;5.732;2023-07-31T07:25:47;10.93;;;3.63;;
63782;SDS011;49925;52.522;5.732;2023-07-31T07:28:14;10.68;;;3.50;;
63782;SDS011;49925;52.522;5.732;2023-07-31T07:30:42;13.05;;;4.05;;
63782;SDS011;49925;52.522;5.732;2023-07-31T07:33:10;6.50;;;3.30;;
63782;SDS011;49925;52.522;5.732;2023-07-31T07:35:39;7.00;;;3.70;;
63782;SDS011;49925;52.522;5.732;2023-07-31T07:38:06;13.88;;;3.70;;
63782;SDS011;49925;52.522;5.732;2023-07-31T07:40:37;9.13;;;3.40;;
63782;SDS011;49925;52.522;5.732;2023-07-31T07:43:06;11.40;;;3.67;;
63782;SDS011;49925;52.522;5.732;2023-07-31T07:45:33;7.18;;;3.35;;
63782;SDS011;49925;52.522;5.732;2023-07-31T07:48:00;12.02;;;3.38;;
63782;SDS011;49925;52.522;5.732;2023-07-31T07:50:28;6.10;;;3.22;;
63782;SDS011;49925;52.522;5.732;2023-07-31T07:52:55;9.30;;;3.33;;
63782;SDS011;49925;52.522;5.732;2023-07-31T07:55:22;7.53;;;3.50;;
63782;SDS011;49925;52.522;5.732;2023-07-31T07:57:49;10.27;;;3.60;;
63782;SDS011;49925;52.522;5.732;2023-07-31T08:00:17;9.55;;;3.10;;
63782;SDS011;49925;52.522;5.732;2023-07-31T08:02:44;10.07;;;3.50;;
63782;SDS011;49925;52.522;5.732;2023-07-31T08:05:11;6.28;;;3.30;;
63782;SDS011;49925;52.522;5.732;2023-07-31T08:07:39;7.40;;;2.92;;
63782;SDS011;49925;52.522;5.732;2023-07-31T08:10:06;7.07;;;3.00;;
63782;SDS011;49925;52.522;5.732;2023-07-31T08:12:34;5.85;;;3.00;;
63782;SDS011;49925;52.522;5.732;2023-07-31T08:15:01;6.82;;;3.10;;
63782;SDS011;49925;52.522;5.732;2023-07-31T08:17:28;11.00;;;3.28;;
63782;SDS011;49925;52.522;5.732;2023-07-31T08:19:55;5.85;;;2.90;;
63782;SDS011;49925;52.522;5.732;2023-07-31T08:22:24;6.82;;;2.67;;
63782;SDS011;49925;52.522;5.732;2023-07-31T08:24:52;5.22;;;2.45;;
63782;SDS011;49925;52.522;5.732;2023-07-31T08:27:19;8.00;;;2.60;;
63782;SDS011;49925;52.522;5.732;2023-07-31T08:29:46;6.13;;;2.70;;
63782;SDS011;49925;52.522;5.732;2023-07-31T08:32:14;4.78;;;2.60;;
63782;SDS011;49925;52.522;5.732;2023-07-31T08:34:41;5.18;;;2.70;;
63782;SDS011;49925;52.522;5.732;2023-07-31T08:37:08;8.48;;;2.85;;
63782;SDS011;49925;52.522;5.732;2023-07-31T08:39:37;4.70;;;2.42;;
63782;SDS011;49925;52.522;5.732;2023-07-31T08:42:09;3.42;;;2.35;;
63782;SDS011;49925;52.522;5.732;2023-07-31T08:44:36;5.50;;;2.20;;
63782;SDS011;49925;52.522;5.732;2023-07-31T08:47:03;4.68;;;2.22;;
63782;SDS011;49925;52.522;5.732;2023-07-31T08:49:31;4.63;;;2.10;;
63782;SDS011;49925;52.522;5.732;2023-07-31T08:51:58;4.88;;;2.20;;
63782;SDS011;49925;52.522;5.732;2023-07-31T08:54:29;4.88;;;2.30;;
63782;SDS011;49925;52.522;5.732;2023-07-31T08:56:57;4.85;;;2.53;;
63782;SDS011;49925;52.522;5.732;2023-07-31T08:59:29;3.67;;;2.20;;
63782;SDS011;49925;52.522;5.732;2023-07-31T09:01:59;3.58;;;2.13;;
63782;SDS011;49925;52.522;5.732;2023-07-31T09:04:32;4.25;;;2.17;;
63782;SDS011;49925;52.522;5.732;2023-07-31T09:07:01;5.75;;;2.40;;
63782;SDS011;49925;52.522;5.732;2023-07-31T09:09:31;3.35;;;2.20;;
63782;SDS011;49925;52.522;5.732;2023-07-31T09:11:58;4.63;;;2.63;;
63782;SDS011;49925;52.522;5.732;2023-07-31T09:14:26;4.47;;;2.17;;
63782;SDS011;49925;52.522;5.732;2023-07-31T09:16:57;5.22;;;2.30;;
63782;SDS011;49925;52.522;5.732;2023-07-31T09:19:27;5.78;;;2.40;;
63782;SDS011;49925;52.522;5.732;2023-07-31T09:22:04;3.72;;;2.30;;
63782;SDS011;49925;52.522;5.732;2023-07-31T09:24:32;7.85;;;2.38;;
63782;SDS011;49925;52.522;5.732;2023-07-31T09:27:01;2.55;;;1.85;;
63782;SDS011;49925;52.522;5.732;2023-07-31T09:29:29;3.60;;;2.03;;
63782;SDS011;49925;52.522;5.732;2023-07-31T09:31:56;4.50;;;2.17;;
63782;SDS011;49925;52.522;5.732;2023-07-31T09:34:36;5.80;;;2.65;;
63782;SDS011;49925;52.522;5.732;2023-07-31T09:37:05;7.23;;;2.20;;
63782;SDS011;49925;52.522;5.732;2023-07-31T09:39:33;9.85;;;2.22;;
63782;SDS011;49925;52.522;5.732;2023-07-31T09:42:13;5.75;;;2.10;;
63782;SDS011;49925;52.522;5.732;2023-07-31T09:44:40;7.15;;;2.20;;
63782;SDS011;49925;52.522;5.732;2023-07-31T09:47:20;4.82;;;2.30;;
63782;SDS011;49925;52.522;5.732;2023-07-31T09:49:51;3.63;;;2.13;;
63782;SDS011;49925;52.522;5.732;2023-07-31T09:52:19;7.28;;;2.40;;
63782;SDS011;49925;52.522;5.732;2023-07-31T09:54:46;4.72;;;2.33;;
63782;SDS011;49925;52.522;5.732;2023-07-31T09:57:14;3.65;;;2.17;;
63782;SDS011;49925;52.522;5.732;2023-07-31T09:59:44;2.70;;;1.85;;
63782;SDS011;49925;52.522;5.732;2023-07-31T10:02:14;3.08;;;1.88;;
63782;SDS011;49925;52.522;5.732;2023-07-31T10:04:48;3.17;;;2.10;;
63782;SDS011;49925;52.522;5.732;2023-07-31T10:07:17;2.40;;;1.70;;
63782;SDS011;49925;52.522;5.732;2023-07-31T10:09:45;8.85;;;2.20;;
63782;SDS011;49925;52.522;5.732;2023-07-31T10:12:12;3.13;;;1.75;;
63782;SDS011;49925;52.522;5.732;2023-07-31T10:14:41;5.57;;;1.90;;
63782;SDS011;49925;52.522;5.732;2023-07-31T10:17:09;8.52;;;1.80;;
63782;SDS011;49925;52.522;5.732;2023-07-31T10:19:36;2.83;;;1.80;;
63782;SDS011;49925;52.522;5.732;2023-07-31T10:22:04;14.55;;;2.05;;
63782;SDS011;49925;52.522;5.732;2023-07-31T10:24:32;6.35;;;1.52;;
63782;SDS011;49925;52.522;5.732;2023-07-31T10:27:00;2.38;;;1.13;;
63782;SDS011;49925;52.522;5.732;2023-07-31T10:29:29;1.33;;;1.00;;
63782;SDS011;49925;52.522;5.732;2023-07-31T10:31:57;2.20;;;1.10;;
63782;SDS011;49925;52.522;5.732;2023-07-31T10:34:25;3.33;;;1.30;;
63782;SDS011;49925;52.522;5.732;2023-07-31T10:39:57;4.00;;;1.52;;
63782;SDS011;49925;52.522;5.732;2023-07-31T10:42:30;5.63;;;1.90;;
63782;SDS011;49925;52.522;5.732;2023-07-31T10:45:02;6.07;;;1.92;;
63782;SDS011;49925;52.522;5.732;2023-07-31T10:47:30;7.60;;;2.38;;
63782;SDS011;49925;52.522;5.732;2023-07-31T10:52:49;6.43;;;2.00;;
63782;SDS011;49925;52.522;5.732;2023-07-31T10:58:09;7.25;;;2.00;;
63782;SDS011;49925;52.522;5.732;2023-07-31T11:00:41;11.52;;;2.30;;
63782;SDS011;49925;52.522;5.732;2023-07-31T11:03:14;8.48;;;2.10;;
63782;SDS011;49925;52.522;5.732;2023-07-31T11:10:44;8.43;;;2.83;;
63782;SDS011;49925;52.522;5.732;2023-07-31T11:13:13;15.15;;;3.00;;
63782;SDS011;49925;52.522;5.732;2023-07-31T11:15:41;12.75;;;3.30;;
63782;SDS011;49925;52.522;5.732;2023-07-31T11:18:08;13.95;;;3.40;;
63782;SDS011;49925;52.522;5.732;2023-07-31T11:20:37;16.30;;;3.90;;
63782;SDS011;49925;52.522;5.732;2023-07-31T11:23:06;19.50;;;3.88;;
63782;SDS011;49925;52.522;5.732;2023-07-31T11:25:35;14.77;;;3.90;;
63782;SDS011;49925;52.522;5.732;2023-07-31T11:28:09;19.75;;;4.35;;
63782;SDS011;49925;52.522;5.732;2023-07-31T11:30:39;18.42;;;3.67;;
63782;SDS011;49925;52.522;5.732;2023-07-31T11:33:09;21.45;;;4.40;;
63782;SDS011;49925;52.522;5.732;2023-07-31T11:35:43;21.45;;;3.88;;
63782;SDS011;49925;52.522;5.732;2023-07-31T11:40:50;14.30;;;3.90;;
63782;SDS011;49925;52.522;5.732;2023-07-31T11:43:23;22.88;;;4.53;;
63782;SDS011;49925;52.522;5.732;2023-07-31T11:45:51;16.42;;;4.53;;
63782;SDS011;49925;52.522;5.732;2023-07-31T11:48:25;15.38;;;4.05;;
63782;SDS011;49925;52.522;5.732;2023-07-31T11:50:57;17.40;;;4.57;;
63782;SDS011;49925;52.522;5.732;2023-07-31T11:53:28;19.20;;;4.40;;
63782;SDS011;49925;52.522;5.732;2023-07-31T11:56:17;15.23;;;4.30;;
63782;SDS011;49925;52.522;5.732;2023-07-31T11:58:46;11.52;;;3.75;;
63782;SDS011;49925;52.522;5.732;2023-07-31T12:01:16;18.70;;;4.15;;
63782;SDS011;49925;52.522;5.732;2023-07-31T12:03:46;15.05;;;3.85;;
63782;SDS011;49925;52.522;5.732;2023-07-31T12:06:14;22.73;;;4.50;;
63782;SDS011;49925;52.522;5.732;2023-07-31T12:08:42;13.88;;;3.83;;
63782;SDS011;49925;52.522;5.732;2023-07-31T12:11:09;17.25;;;3.90;;
63782;SDS011;49925;52.522;5.732;2023-07-31T12:13:36;16.13;;;3.53;;
63782;SDS011;49925;52.522;5.732;2023-07-31T12:16:04;16.27;;;3.58;;
63782;SDS011;49925;52.522;5.732;2023-07-31T12:18:35;13.25;;;3.70;;
63782;SDS011;49925;52.522;5.732;2023-07-31T12:21:05;12.57;;;3.67;;
63782;SDS011;49925;52.522;5.732;2023-07-31T12:23:35;14.05;;;3.90;;
63782;SDS011;49925;52.522;5.732;2023-07-31T12:26:05;14.82;;;3.63;;
63782;SDS011;49925;52.522;5.732;2023-07-31T12:28:41;17.77;;;4.05;;
63782;SDS011;49925;52.522;5.732;2023-07-31T12:31:21;14.93;;;4.18;;
63782;SDS011;49925;52.522;5.732;2023-07-31T12:33:50;16.80;;;4.18;;
63782;SDS011;49925;52.522;5.732;2023-07-31T12:36:18;15.80;;;4.22;;
63782;SDS011;49925;52.522;5.732;2023-07-31T12:38:49;12.60;;;4.20;;
63782;SDS011;49925;52.522;5.732;2023-07-31T12:41:18;17.38;;;4.85;;
63782;SDS011;49925;52.522;5.732;2023-07-31T12:43:45;26.38;;;4.30;;
63782;SDS011;49925;52.522;5.732;2023-07-31T12:46:13;14.43;;;3.92;;
63782;SDS011;49925;52.522;5.732;2023-07-31T12:48:41;16.98;;;4.40;;
63782;SDS011;49925;52.522;5.732;2023-07-31T12:51:09;16.17;;;4.10;;
63782;SDS011;49925;52.522;5.732;2023-07-31T12:53:37;8.35;;;3.85;;
63782;SDS011;49925;52.522;5.732;2023-07-31T12:56:04;19.27;;;4.10;;
63782;SDS011;49925;52.522;5.732;2023-07-31T12:58:31;18.17;;;4.22;;
63782;SDS011;49925;52.522;5.732;2023-07-31T13:00:58;16.92;;;4.20;;
63782;SDS011;49925;52.522;5.732;2023-07-31T13:03:26;16.67;;;4.50;;
63782;SDS011;49925;52.522;5.732;2023-07-31T13:05:53;17.30;;;4.60;;
63782;SDS011;49925;52.522;5.732;2023-07-31T13:08:21;15.98;;;4.60;;
63782;SDS011;49925;52.522;5.732;2023-07-31T13:10:48;17.90;;;4.20;;
63782;SDS011;49925;52.522;5.732;2023-07-31T13:13:16;15.15;;;4.70;;
63782;SDS011;49925;52.522;5.732;2023-07-31T13:15:43;16.52;;;4.60;;
63782;SDS011;49925;52.522;5.732;2023-07-31T13:18:11;16.63;;;4.10;;
63782;SDS011;49925;52.522;5.732;2023-07-31T13:20:39;14.52;;;4.20;;
63782;SDS011;49925;52.522;5.732;2023-07-31T13:23:06;13.88;;;4.18;;
63782;SDS011;49925;52.522;5.732;2023-07-31T13:25:33;18.92;;;4.50;;
63782;SDS011;49925;52.522;5.732;2023-07-31T13:28:02;17.23;;;4.50;;
63782;SDS011;49925;52.522;5.732;2023-07-31T13:30:48;17.92;;;4.30;;
63782;SDS011;49925;52.522;5.732;2023-07-31T13:33:16;20.70;;;4.20;;
63782;SDS011;49925;52.522;5.732;2023-07-31T13:35:59;26.20;;;4.63;;
63782;SDS011;49925;52.522;5.732;2023-07-31T13:38:27;19.42;;;4.25;;
63782;SDS011;49925;52.522;5.732;2023-07-31T13:40:54;15.65;;;4.32;;
63782;SDS011;49925;52.522;5.732;2023-07-31T13:43:23;22.30;;;4.28;;
63782;SDS011;49925;52.522;5.732;2023-07-31T13:45:50;16.38;;;4.43;;
63782;SDS011;49925;52.522;5.732;2023-07-31T13:48:26;13.07;;;3.90;;
63782;SDS011;49925;52.522;5.732;2023-07-31T13:50:53;22.67;;;4.63;;
63782;SDS011;49925;52.522;5.732;2023-07-31T13:53:20;18.20;;;3.83;;
63782;SDS011;49925;52.522;5.732;2023-07-31T13:55:48;19.15;;;4.63;;
63782;SDS011;49925;52.522;5.732;2023-07-31T13:58:15;20.40;;;4.85;;
63782;SDS011;49925;52.522;5.732;2023-07-31T14:00:44;14.50;;;4.30;;
63782;SDS011;49925;52.522;5.732;2023-07-31T14:03:11;13.32;;;4.32;;
63782;SDS011;49925;52.522;5.732;2023-07-31T14:05:39;15.55;;;3.95;;
63782;SDS011;49925;52.522;5.732;2023-07-31T14:08:06;12.38;;;3.90;;
63782;SDS011;49925;52.522;5.732;2023-07-31T14:10:33;13.82;;;3.70;;
63782;SDS011;49925;52.522;5.732;2023-07-31T14:13:00;11.23;;;3.40;;
63782;SDS011;49925;52.522;5.732;2023-07-31T14:15:28;10.48;;;3.33;;
63782;SDS011;49925;52.522;5.732;2023-07-31T14:17:55;15.02;;;3.40;;
63782;SDS011;49925;52.522;5.732;2023-07-31T14:20:27;16.58;;;3.53;;
63782;SDS011;49925;52.522;5.732;2023-07-31T14:22:55;9.43;;;3.38;;
63782;SDS011;49925;52.522;5.732;2023-07-31T14:25:22;11.60;;;3.28;;
63782;SDS011;49925;52.522;5.732;2023-07-31T14:27:50;11.05;;;4.05;;
63782;SDS011;49925;52.522;5.732;2023-07-31T14:30:17;13.82;;;3.70;;
63782;SDS011;49925;52.522;5.732;2023-07-31T14:32:44;14.05;;;3.38;;
63782;SDS011;49925;52.522;5.732;2023-07-31T14:35:12;13.43;;;3.47;;
63782;SDS011;49925;52.522;5.732;2023-07-31T14:37:40;11.65;;;3.47;;
63782;SDS011;49925;52.522;5.732;2023-07-31T14:40:11;15.15;;;4.10;;
63782;SDS011;49925;52.522;5.732;2023-07-31T14:42:39;21.70;;;4.75;;
63782;SDS011;49925;52.522;5.732;2023-07-31T14:45:07;13.82;;;4.22;;
63782;SDS011;49925;52.522;5.732;2023-07-31T14:47:36;13.50;;;5.13;;
63782;SDS011;49925;52.522;5.732;2023-07-31T14:50:03;16.95;;;4.75;;
63782;SDS011;49925;52.522;5.732;2023-07-31T14:52:32;16.55;;;5.30;;
63782;SDS011;49925;52.522;5.732;2023-07-31T14:54:59;10.05;;;3.45;;
63782;SDS011;49925;52.522;5.732;2023-07-31T14:57:26;9.07;;;3.08;;
63782;SDS011;49925;52.522;5.732;2023-07-31T14:59:54;7.88;;;2.80;;
63782;SDS011;49925;52.522;5.732;2023-07-31T15:02:21;6.18;;;2.78;;
63782;SDS011;49925;52.522;5.732;2023-07-31T15:04:48;6.20;;;2.70;;
63782;SDS011;49925;52.522;5.732;2023-07-31T15:07:16;10.32;;;2.60;;